createdAt,value
2023-04-19T00:01:44.109Z,90.57
2023-04-19T00:04:11.361Z,90.38
2023-04-19T00:06:40.504Z,90.22
2023-04-19T00:09:08.484Z,90.27
2023-04-19T00:11:35.271Z,90.45
2023-04-19T00:14:02.674Z,90.58
2023-04-19T00:16:29.559Z,90.59
2023-04-19T00:18:56.355Z,90.58
2023-04-19T00:21:23.250Z,90.41
2023-04-19T00:23:50.146Z,90.19
2023-04-19T00:26:16.934Z,90.03
2023-04-19T00:28:46.183Z,89.81
2023-04-19T00:31:13.042Z,89.84
2023-04-19T00:33:42.368Z,89.97
2023-04-19T00:36:10.498Z,89.96
2023-04-19T00:38:37.310Z,90.36
2023-04-19T00:41:04.176Z,91.35
2023-04-19T00:43:31.350Z,92.57
2023-04-19T00:45:58.207Z,93.29
2023-04-19T00:48:24.996Z,93.59
2023-04-19T00:50:51.890Z,93.50
2023-04-19T00:53:18.816Z,93.83
2023-04-19T00:55:46.593Z,94.07
2023-04-19T00:58:13.531Z,94.07
2023-04-19T01:00:43.822Z,94.09
2023-04-19T01:03:10.851Z,94.18
2023-04-19T01:05:38.075Z,94.17
2023-04-19T01:08:05.850Z,94.34
2023-04-19T01:10:32.914Z,94.37
2023-04-19T01:12:59.867Z,94.26
2023-04-19T01:15:26.686Z,94.20
2023-04-19T01:17:55.982Z,94.20
2023-04-19T01:20:23.140Z,94.24
2023-04-19T01:22:51.489Z,93.95
2023-04-19T01:25:18.377Z,93.93
2023-04-19T01:27:45.388Z,93.68
2023-04-19T01:30:12.562Z,93.39
2023-04-19T01:32:40.925Z,92.92
2023-04-19T01:35:10.604Z,92.74
2023-04-19T01:37:37.526Z,92.81
2023-04-19T01:40:06.865Z,92.93
2023-04-19T01:42:34.972Z,92.77
2023-04-19T01:45:01.929Z,92.84
2023-04-19T01:47:29.430Z,92.76
2023-04-19T01:49:56.433Z,92.71
2023-04-19T01:52:23.170Z,92.67
2023-04-19T01:54:52.380Z,92.52
2023-04-19T01:57:20.409Z,92.43
2023-04-19T01:59:47.629Z,92.27
2023-04-19T02:02:14.501Z,92.30
2023-04-19T02:04:41.355Z,92.48
2023-04-19T02:07:08.201Z,92.68
2023-04-19T02:09:36.559Z,92.84
2023-04-19T02:12:04.655Z,92.80
2023-04-19T02:14:32.215Z,92.75
2023-04-19T02:16:59.316Z,92.62
2023-04-19T02:19:26.218Z,92.56
2023-04-19T02:21:57.088Z,92.34
2023-04-19T02:24:24.465Z,92.07
2023-04-19T02:26:53.072Z,91.86
2023-04-19T02:29:20.498Z,91.63
2023-04-19T02:31:47.429Z,91.72
2023-04-19T02:34:14.626Z,91.68
2023-04-19T02:36:41.672Z,91.68
2023-04-19T02:39:08.405Z,91.73
2023-04-19T02:41:38.688Z,91.63
2023-04-19T02:44:05.808Z,91.59
2023-04-19T02:46:34.773Z,91.49
2023-04-19T02:49:02.018Z,91.28
2023-04-19T02:51:29.038Z,91.34
2023-04-19T02:53:55.862Z,91.31
2023-04-19T02:56:23.109Z,91.48
2023-04-19T02:58:50.069Z,91.90
2023-04-19T03:01:17.002Z,92.63
2023-04-19T03:03:44.464Z,93.40
2023-04-19T03:06:11.972Z,93.65
2023-04-19T03:08:39.265Z,93.98
2023-04-19T03:11:06.116Z,93.88
2023-04-19T03:13:32.976Z,94.11
2023-04-19T03:15:59.920Z,94.48
2023-04-19T03:18:27.313Z,94.59
2023-04-19T03:20:55.158Z,94.60
2023-04-19T03:23:25.129Z,94.72
2023-04-19T03:25:52.045Z,95.25
2023-04-19T03:28:32.383Z,95.40
2023-04-19T03:31:32.325Z,95.73
2023-04-19T03:33:59.336Z,95.64
2023-04-19T03:36:30.592Z,95.50
2023-04-19T03:38:59.267Z,95.19
2023-04-19T03:41:27.032Z,94.78
2023-04-19T03:44:14.280Z,94.93
2023-04-19T03:46:45.878Z,94.94
2023-04-19T03:49:13.512Z,94.88
2023-04-19T03:51:41.965Z,94.86
2023-04-19T03:54:08.849Z,94.76
2023-04-19T03:56:35.838Z,94.76
2023-04-19T03:59:02.802Z,94.66
2023-04-19T04:01:30.342Z,94.96
2023-04-19T04:03:57.549Z,95.03
2023-04-19T04:06:26.328Z,94.91
2023-04-19T04:08:53.211Z,94.59
2023-04-19T04:11:21.197Z,94.65
2023-04-19T04:13:50.201Z,94.25
2023-04-19T04:16:20.588Z,94.19
2023-04-19T04:18:48.019Z,94.00
2023-04-19T04:21:15.050Z,93.81
2023-04-19T04:23:45.021Z,93.67
2023-04-19T04:26:20.191Z,93.42
2023-04-19T04:28:58.764Z,93.49
2023-04-19T04:31:25.700Z,93.56
2023-04-19T04:33:54.859Z,93.46
2023-04-19T04:36:21.921Z,92.71
2023-04-19T04:38:49.271Z,92.49
2023-04-19T04:41:16.238Z,92.08
2023-04-19T04:43:43.058Z,92.13
2023-04-19T04:46:10.868Z,91.80
2023-04-19T04:48:39.259Z,91.80
2023-04-19T04:51:06.275Z,91.92
2023-04-19T04:53:34.413Z,91.95
2023-04-19T04:56:03.462Z,91.73
2023-04-19T04:58:31.112Z,91.63
2023-04-19T05:01:04.080Z,90.92
2023-04-19T05:03:33.336Z,90.28
2023-04-19T05:06:02.430Z,90.11
2023-04-19T05:08:31.281Z,89.84
2023-04-19T05:11:09.477Z,89.41
2023-04-19T05:13:37.033Z,89.24
2023-04-19T05:16:04.447Z,88.67
2023-04-19T05:18:32.156Z,88.37
2023-04-19T05:20:59.931Z,87.93
2023-04-19T05:23:30.238Z,87.80
2023-04-19T05:28:53.573Z,87.70
2023-04-19T05:31:45.107Z,87.56
2023-04-19T05:34:33.323Z,86.68
2023-04-19T05:37:00.618Z,85.34
2023-04-19T05:39:27.584Z,84.65
2023-04-19T05:41:54.851Z,84.27
2023-04-19T05:44:22.093Z,83.08
2023-04-19T05:46:49.043Z,82.02
2023-04-19T05:49:20.907Z,81.08
2023-04-19T05:52:02.910Z,79.95
2023-04-19T05:54:36.053Z,79.71
2023-04-19T05:57:03.920Z,79.03
2023-04-19T05:59:31.885Z,75.93
2023-04-19T06:02:00.884Z,74.19
2023-04-19T06:04:28.166Z,72.57
2023-04-19T06:06:55.735Z,70.18
2023-04-19T06:09:22.585Z,70.08
2023-04-19T06:11:51.532Z,70.18
2023-04-19T06:14:19.742Z,71.03
2023-04-19T06:16:46.893Z,72.06
2023-04-19T06:19:14.052Z,72.10
2023-04-19T06:21:40.917Z,72.98
2023-04-19T06:24:07.983Z,73.42
2023-04-19T06:26:34.887Z,73.39
2023-04-19T06:29:01.908Z,72.49
2023-04-19T06:31:29.463Z,72.74
2023-04-19T06:33:56.403Z,72.80
2023-04-19T06:36:23.593Z,72.78
2023-04-19T06:38:50.651Z,72.65
2023-04-19T06:41:17.637Z,72.34
2023-04-19T06:43:44.978Z,72.52
2023-04-19T06:46:14.036Z,72.80
2023-04-19T06:48:41.391Z,72.06
2023-04-19T06:51:08.959Z,71.00
2023-04-19T06:53:36.624Z,70.60
2023-04-19T06:56:04.286Z,70.23
2023-04-19T06:58:33.286Z,69.90
2023-04-19T07:01:03.783Z,69.21
2023-04-19T07:03:30.832Z,68.32
2023-04-19T07:05:58.748Z,68.61
2023-04-19T07:08:34.978Z,68.86
2023-04-19T07:11:09.920Z,69.41
2023-04-19T07:13:38.015Z,69.59
2023-04-19T07:16:05.883Z,69.81
2023-04-19T07:18:33.374Z,69.79
2023-04-19T07:21:00.360Z,69.92
2023-04-19T07:23:27.135Z,69.68
2023-04-19T07:25:54.180Z,69.96
2023-04-19T07:28:21.113Z,69.46
2023-04-19T07:30:49.677Z,69.75
2023-04-19T07:33:17.335Z,69.41
2023-04-19T07:35:44.142Z,67.90
2023-04-19T07:38:10.965Z,66.38
2023-04-19T07:40:38.064Z,65.59
2023-04-19T07:43:05.050Z,64.25
2023-04-19T07:45:33.226Z,59.90
2023-04-19T07:48:02.434Z,59.45
2023-04-19T07:50:31.420Z,58.12
2023-04-19T07:52:58.363Z,56.99
2023-04-19T07:55:25.405Z,56.66
2023-04-19T07:57:52.276Z,55.77
2023-04-19T08:00:21.291Z,54.54
2023-04-19T08:02:48.561Z,51.64
2023-04-19T08:05:19.703Z,48.99
2023-04-19T08:07:46.723Z,48.51
2023-04-19T08:10:14.185Z,47.59
2023-04-19T08:12:47.704Z,46.86
2023-04-19T08:17:57.471Z,45.01
2023-04-19T08:20:24.799Z,43.74
2023-04-19T08:22:53.914Z,42.53
2023-04-19T08:25:23.297Z,42.79
2023-04-19T08:27:50.273Z,42.09
2023-04-19T08:30:17.386Z,41.57
2023-04-19T08:32:44.324Z,41.55
2023-04-19T08:35:11.351Z,41.04
2023-04-19T08:37:38.383Z,41.13
2023-04-19T08:40:06.195Z,40.94
2023-04-19T08:42:36.826Z,40.12
2023-04-19T08:47:42.145Z,39.20
2023-04-19T08:50:31.166Z,38.23
2023-04-19T08:53:16.084Z,37.81
2023-04-19T08:58:30.684Z,37.11
2023-04-19T09:01:08.350Z,36.86
2023-04-19T09:04:02.657Z,36.83
2023-04-19T09:06:38.603Z,36.72
2023-04-19T09:11:52.988Z,37.09
2023-04-19T09:14:20.736Z,37.75
2023-04-19T09:16:47.973Z,38.00
2023-04-19T09:19:24.143Z,38.73
2023-04-19T09:21:55.189Z,38.57
2023-04-19T09:25:13.641Z,39.27
2023-04-19T09:27:28.502Z,39.04
2023-04-19T09:29:56.566Z,38.89
2023-04-19T09:32:24.033Z,38.59
2023-04-19T09:34:52.726Z,39.25
2023-04-19T09:37:33.025Z,38.50
2023-04-19T09:40:23.622Z,38.37
2023-04-19T09:45:29.829Z,38.31
2023-04-19T09:48:02.939Z,38.64
2023-04-19T09:50:32.752Z,39.25
2023-04-19T09:53:00.952Z,39.33
2023-04-19T09:55:29.169Z,38.81
2023-04-19T09:58:01.452Z,38.12
2023-04-19T10:00:33.528Z,38.43
2023-04-19T10:03:06.639Z,37.89
2023-04-19T10:05:33.758Z,38.35
2023-04-19T10:08:01.694Z,38.12
2023-04-19T10:15:47.255Z,40.20
2023-04-19T10:18:17.954Z,40.73
2023-04-19T10:21:03.888Z,41.78
2023-04-19T10:23:31.411Z,41.65
2023-04-19T10:25:59.111Z,41.71
2023-04-19T10:28:30.281Z,41.80
2023-04-19T10:31:02.451Z,42.05
2023-04-19T10:33:36.792Z,42.29
2023-04-19T10:36:08.662Z,42.76
2023-04-19T10:38:46.682Z,43.50
2023-04-19T10:41:17.482Z,44.37
2023-04-19T10:43:59.382Z,44.93
2023-04-19T10:49:15.671Z,46.24
2023-04-19T10:51:49.959Z,45.94
2023-04-19T10:54:37.884Z,46.14
2023-04-19T10:57:14.964Z,46.31
2023-04-19T11:00:25.604Z,46.48
2023-04-19T11:02:53.570Z,46.46
2023-04-19T11:05:21.061Z,46.42
2023-04-19T11:07:48.390Z,46.31
2023-04-19T11:10:28.081Z,46.42
2023-04-19T11:12:55.446Z,46.18
2023-04-19T11:15:23.681Z,45.96
2023-04-19T11:18:08.767Z,46.29
2023-04-19T11:20:42.616Z,46.74
2023-04-19T11:23:19.437Z,47.28
2023-04-19T11:25:48.006Z,47.45
2023-04-19T11:28:17.016Z,47.19
2023-04-19T11:30:43.833Z,47.51
2023-04-19T11:33:12.216Z,48.10
2023-04-19T11:35:39.280Z,48.79
2023-04-19T11:38:06.242Z,48.91
2023-04-19T11:40:33.803Z,48.84
2023-04-19T11:43:03.155Z,48.86
2023-04-19T11:45:39.103Z,49.59
2023-04-19T11:48:17.736Z,50.22
2023-04-19T11:50:45.550Z,50.65
2023-04-19T11:53:33.333Z,51.15
2023-04-19T11:56:05.165Z,51.24
2023-04-19T11:58:35.593Z,51.14
2023-04-19T12:01:13.679Z,51.58
2023-04-19T12:03:45.145Z,51.66
2023-04-19T12:06:15.710Z,51.52
2023-04-19T12:08:47.512Z,51.90
2023-04-19T12:11:15.453Z,52.31
2023-04-19T12:13:44.443Z,52.74
2023-04-19T12:16:11.653Z,52.66
2023-04-19T12:18:48.237Z,52.93
2023-04-19T12:21:28.850Z,53.15
2023-04-19T12:23:59.655Z,53.62
2023-04-19T12:26:28.753Z,53.86
2023-04-19T12:28:56.017Z,54.05
2023-04-19T12:31:23.481Z,54.64
2023-04-19T12:33:50.710Z,55.22
2023-04-19T12:36:17.926Z,54.47
2023-04-19T12:38:46.579Z,54.60
2023-04-19T12:41:13.489Z,54.48
2023-04-19T12:43:40.627Z,54.71
2023-04-19T12:46:07.676Z,55.00
2023-04-19T12:48:35.019Z,54.01
2023-04-19T12:51:04.655Z,54.41
2023-04-19T12:53:31.792Z,54.90
2023-04-19T12:55:58.625Z,55.15
2023-04-19T12:58:27.550Z,55.74
2023-04-19T13:00:54.761Z,56.27
2023-04-19T13:03:21.736Z,56.54
2023-04-19T13:05:48.880Z,57.23
2023-04-19T13:08:16.586Z,58.17
2023-04-19T13:10:43.886Z,59.30
2023-04-19T13:13:10.745Z,60.64
2023-04-19T13:15:37.800Z,61.69
2023-04-19T13:18:04.789Z,62.65
2023-04-19T13:20:35.328Z,63.66
2023-04-19T13:23:02.432Z,64.71
2023-04-19T13:25:29.314Z,65.09
2023-04-19T13:27:56.150Z,65.52
2023-04-19T13:30:23.717Z,66.35
2023-04-19T13:32:51.886Z,66.83
2023-04-19T13:35:19.218Z,67.43
2023-04-19T13:37:47.238Z,68.07
2023-04-19T13:40:19.404Z,68.59
2023-04-19T13:42:47.179Z,69.02
2023-04-19T13:45:14.575Z,69.89
2023-04-19T13:47:41.660Z,70.55
2023-04-19T13:50:09.111Z,71.20
2023-04-19T13:52:36.396Z,72.03
2023-04-19T13:55:03.572Z,73.20
2023-04-19T13:57:30.833Z,74.45
2023-04-19T13:59:59.351Z,74.73
2023-04-19T14:02:26.420Z,75.31
2023-04-19T14:04:59.268Z,75.95
2023-04-19T14:07:28.632Z,76.10
2023-04-19T14:09:58.461Z,76.26
2023-04-19T14:12:26.253Z,75.80
2023-04-19T14:14:53.498Z,75.77
2023-04-19T14:17:20.448Z,75.86
2023-04-19T14:19:47.600Z,75.57
2023-04-19T14:22:16.195Z,75.38
2023-04-19T14:24:43.341Z,74.81
2023-04-19T14:27:11.910Z,74.92
2023-04-19T14:29:39.403Z,74.51
2023-04-19T14:32:21.474Z,74.30
2023-04-19T14:34:51.060Z,74.11
2023-04-19T14:37:18.597Z,73.92
2023-04-19T14:39:45.828Z,74.08
2023-04-19T14:42:13.167Z,74.69
2023-04-19T14:44:40.396Z,75.11
2023-04-19T14:47:07.587Z,75.54
2023-04-19T14:49:34.805Z,75.83
2023-04-19T14:52:03.292Z,76.45
2023-04-19T14:54:30.329Z,77.33
2023-04-19T14:56:57.417Z,78.17
2023-04-19T14:59:24.305Z,79.04
2023-04-19T15:01:51.204Z,79.72
2023-04-19T15:04:18.218Z,80.45
2023-04-19T15:06:45.607Z,81.31
2023-04-19T15:09:12.536Z,81.70
2023-04-19T15:11:39.542Z,81.17
2023-04-19T15:14:06.533Z,81.17
2023-04-19T15:16:33.815Z,80.93
2023-04-19T15:19:01.857Z,80.91
2023-04-19T15:21:28.633Z,81.05
2023-04-19T15:23:55.498Z,81.23
2023-04-19T15:26:25.103Z,81.75
2023-04-19T15:28:56.941Z,82.30
2023-04-19T15:31:24.463Z,83.00
2023-04-19T15:33:51.920Z,83.48
2023-04-19T15:36:22.475Z,83.87
2023-04-19T15:38:49.566Z,84.16
2023-04-19T15:41:16.947Z,84.55
2023-04-19T15:43:43.907Z,84.87
2023-04-19T15:46:13.103Z,85.52
2023-04-19T15:48:40.681Z,85.82
2023-04-19T15:51:08.797Z,85.95
2023-04-19T15:56:43.487Z,86.88
2023-04-19T15:59:11.428Z,87.44
2023-04-19T16:01:39.213Z,88.02
2023-04-19T16:04:06.562Z,88.51
2023-04-19T16:06:34.459Z,88.83
2023-04-19T16:09:01.501Z,89.13
2023-04-19T16:11:29.207Z,89.72
2023-04-19T16:13:58.531Z,90.22
2023-04-19T16:16:27.050Z,90.82
2023-04-19T16:18:54.042Z,91.25
2023-04-19T16:21:21.145Z,91.84
2023-04-19T16:23:52.896Z,92.40
2023-04-19T16:26:21.986Z,92.68
2023-04-19T16:28:52.418Z,93.13
2023-04-19T16:31:19.605Z,92.87
2023-04-19T16:33:48.047Z,92.96
2023-04-19T16:36:15.345Z,93.14
2023-04-19T16:38:42.337Z,93.67
2023-04-19T16:41:11.908Z,93.97
2023-04-19T16:43:39.202Z,93.87
2023-04-19T16:46:06.883Z,94.09
2023-04-19T16:48:47.892Z,94.47
2023-04-19T16:51:15.356Z,95.08
2023-04-19T16:53:49.631Z,95.23
2023-04-19T16:56:19.109Z,95.56
2023-04-19T16:58:47.337Z,96.06
2023-04-19T17:01:14.820Z,96.05
2023-04-19T17:03:42.251Z,96.40
2023-04-19T17:06:20.814Z,96.48
2023-04-19T17:08:51.592Z,96.99
2023-04-19T17:11:18.873Z,97.69
2023-04-19T17:13:45.664Z,97.95
2023-04-19T17:16:13.532Z,97.80
2023-04-19T17:18:44.831Z,98.00
2023-04-19T17:21:16.360Z,97.80
2023-04-19T17:23:44.939Z,98.07
2023-04-19T17:26:13.629Z,98.37
2023-04-19T17:28:42.100Z,98.43
2023-04-19T17:31:09.363Z,98.61
2023-04-19T17:33:37.586Z,98.95
2023-04-19T17:36:06.446Z,99.41
2023-04-19T17:38:34.594Z,99.68
2023-04-19T17:41:03.214Z,99.81
2023-04-19T17:49:02.513Z,100.00
2023-04-19T17:51:33.994Z,99.98
2023-04-19T17:54:06.182Z,99.71
2023-04-19T17:57:21.940Z,99.66
2023-04-19T18:04:34.541Z,99.84
2023-04-19T18:07:03.163Z,99.98
2023-04-19T18:09:30.097Z,100.00
2023-04-19T18:11:57.550Z,100.00
2023-04-19T18:14:32.451Z,100.00
2023-04-19T18:17:01.453Z,100.00
2023-04-19T18:22:59.472Z,100.00
2023-04-19T18:26:15.841Z,100.00
2023-04-19T18:29:03.620Z,100.00
2023-04-19T18:31:30.699Z,100.00
2023-04-19T18:33:57.598Z,100.00
2023-04-19T18:36:24.602Z,100.00
2023-04-19T18:38:51.617Z,100.00
2023-04-19T18:41:18.736Z,100.00
2023-04-19T18:44:00.716Z,100.00
2023-04-19T18:46:33.629Z,100.00
2023-04-19T18:49:00.805Z,100.00
2023-04-19T18:51:28.260Z,100.00
2023-04-19T18:53:57.560Z,100.00
2023-04-19T18:56:52.165Z,100.00
2023-04-19T18:59:13.779Z,100.00
2023-04-19T19:01:41.601Z,100.00
2023-04-19T19:04:37.401Z,100.00
2023-04-19T19:07:07.844Z,100.00
2023-04-19T19:12:29.311Z,100.00
2023-04-19T19:14:56.517Z,100.00
2023-04-19T19:17:27.827Z,100.00
2023-04-19T19:19:57.479Z,100.00
2023-04-19T19:22:28.339Z,100.00
2023-04-19T19:24:56.860Z,100.00
2023-04-19T19:27:23.998Z,100.00
2023-04-19T19:29:53.809Z,100.00
2023-04-19T19:32:25.112Z,100.00
2023-04-19T19:35:09.916Z,100.00
2023-04-19T19:37:37.832Z,100.00
2023-04-19T19:40:11.305Z,100.00
2023-04-19T19:42:48.420Z,100.00
2023-04-19T19:45:17.607Z,100.00
2023-04-19T19:47:49.296Z,100.00
2023-04-19T19:52:55.050Z,100.00
2023-04-19T19:55:23.141Z,100.00
2023-04-19T20:00:44.008Z,100.00
2023-04-19T20:03:12.127Z,100.00
2023-04-19T20:05:39.894Z,100.00
2023-04-19T20:08:11.594Z,100.00
2023-04-19T20:10:40.936Z,100.00
2023-04-19T20:13:08.411Z,100.00
2023-04-19T20:15:35.991Z,100.00
2023-04-19T20:18:03.810Z,100.00
2023-04-19T20:20:31.128Z,100.00
2023-04-19T20:22:59.041Z,100.00
2023-04-19T20:25:26.263Z,100.00
2023-04-19T20:27:54.464Z,100.00
2023-04-19T20:30:21.353Z,100.00
2023-04-19T20:32:49.544Z,100.00
2023-04-19T20:35:18.338Z,100.00
2023-04-19T20:37:45.934Z,100.00
2023-04-19T20:40:14.536Z,100.00
2023-04-19T20:42:43.685Z,100.00
2023-04-19T20:45:10.588Z,100.00
2023-04-19T20:47:38.225Z,100.00
2023-04-19T20:50:06.257Z,100.00
2023-04-19T20:52:34.323Z,100.00
2023-04-19T20:55:01.241Z,100.00
2023-04-19T20:57:28.238Z,100.00
2023-04-19T20:59:55.229Z,100.00
2023-04-19T21:02:22.088Z,100.00
2023-04-19T21:04:48.906Z,100.00
2023-04-19T21:07:15.746Z,100.00
2023-04-19T21:09:43.061Z,100.00
2023-04-19T21:12:10.100Z,100.00
2023-04-19T21:14:36.989Z,100.00
2023-04-19T21:17:03.891Z,100.00
2023-04-19T21:19:30.981Z,100.00
2023-04-19T21:21:58.275Z,100.00
2023-04-19T21:24:25.721Z,100.00
2023-04-19T21:26:52.566Z,100.00
2023-04-19T21:29:20.008Z,100.00
2023-04-19T21:31:47.079Z,100.00
2023-04-19T21:34:13.923Z,100.00
2023-04-19T21:36:40.791Z,100.00
2023-04-19T21:39:07.854Z,100.00
2023-04-19T21:41:37.328Z,100.00
2023-04-19T21:44:04.266Z,100.00
2023-04-19T21:46:31.615Z,100.00
2023-04-19T21:48:58.530Z,100.00
2023-04-19T21:51:25.354Z,100.00
2023-04-19T21:53:52.255Z,100.00
2023-04-19T21:56:19.205Z,100.00
2023-04-19T21:58:47.029Z,100.00
2023-04-19T22:01:13.983Z,100.00
2023-04-19T22:03:41.264Z,100.00
2023-04-19T22:06:08.923Z,100.00
2023-04-19T22:08:35.819Z,100.00
2023-04-19T22:11:02.996Z,100.00
2023-04-19T22:13:32.729Z,100.00
2023-04-19T22:16:01.647Z,100.00
2023-04-19T22:18:28.799Z,100.00
2023-04-19T22:20:55.604Z,100.00
2023-04-19T22:23:23.326Z,100.00
2023-04-19T22:25:50.306Z,100.00
2023-04-19T22:28:17.176Z,100.00
2023-04-19T22:30:45.045Z,100.00
2023-04-19T22:33:12.028Z,100.00
2023-04-19T22:35:38.941Z,100.00
2023-04-19T22:38:05.780Z,100.00
2023-04-19T22:40:32.646Z,100.00
2023-04-19T22:42:59.424Z,100.00
2023-04-19T22:45:26.252Z,100.00
2023-04-19T22:47:53.191Z,100.00
2023-04-19T22:50:21.737Z,100.00
2023-04-19T22:52:49.349Z,100.00
2023-04-19T22:55:19.316Z,100.00
2023-04-19T22:57:46.185Z,100.00
2023-04-19T23:00:14.225Z,100.00
2023-04-19T23:02:41.728Z,100.00
2023-04-19T23:05:08.839Z,100.00
2023-04-19T23:07:38.886Z,100.00
2023-04-19T23:10:06.312Z,100.00
2023-04-19T23:12:33.936Z,100.00
2023-04-19T23:15:01.576Z,100.00
2023-04-19T23:17:28.689Z,100.00
2023-04-19T23:19:55.544Z,100.00
2023-04-19T23:22:22.408Z,100.00
2023-04-19T23:24:49.357Z,100.00
2023-04-19T23:27:16.500Z,100.00
2023-04-19T23:29:43.626Z,100.00
2023-04-19T23:32:10.621Z,100.00
2023-04-19T23:34:37.467Z,100.00
2023-04-19T23:37:04.293Z,100.00
2023-04-19T23:39:31.725Z,100.00
2023-04-19T23:41:58.668Z,100.00
2023-04-19T23:44:26.399Z,100.00
2023-04-19T23:46:53.813Z,100.00
2023-04-19T23:49:20.878Z,100.00
2023-04-19T23:51:49.939Z,100.00
2023-04-19T23:54:20.663Z,100.00
2023-04-19T23:56:48.902Z,100.00
2023-04-19T23:59:15.976Z,100.00
